Time;durP1;ratioP1;P1;durP2;ratioP2;P2;SDS_P1;SDS_P2;PMS_P1;PMS_P2;Temp;Humidity;BMP_temperature;BMP_pressure;BME280_temperature;BME280_humidity;BME280_pressure;Samples;Min_cycle;Max_cycle;Signal;HPM_P1;HPM_P2
2022/04/01 00:01:32;;;;;;;4.53;4.22;;;;;;;5.23;72.58;96780.06;4119827;28;20209;-54
2022/04/01 00:03:34;;;;;;;4.65;4.28;;;;;;;5.03;72.99;96782.59;4135846;28;20300;-55
2022/04/01 00:05:38;;;;;;;4.03;3.83;;;;;;;5.02;72.50;96783.66;4119561;28;20218;-55
2022/04/01 00:07:42;;;;;;;4.35;3.95;;;;;;;5.00;73.45;96783.09;4119057;28;20727;-55
2022/04/01 00:09:44;;;;;;;3.40;3.20;;;;;;;5.08;73.55;96779.91;4138562;28;20486;-54
2022/04/01 00:11:46;;;;;;;5.80;5.40;;;;;;;4.87;73.59;96788.91;4135629;28;20246;-55
2022/04/01 00:13:47;;;;;;;3.65;3.35;;;;;;;4.99;73.46;96789.59;4117159;28;20672;-54
2022/04/01 00:15:50;;;;;;;5.22;4.93;;;;;;;4.85;73.33;96785.66;4133020;28;20906;-55
2022/04/01 00:17:52;;;;;;;4.93;4.63;;;;;;;4.97;73.08;96783.63;4118917;28;20206;-54
2022/04/01 00:19:53;;;;;;;4.45;4.15;;;;;;;4.92;73.03;96783.56;4133751;28;20214;-54
2022/04/01 00:21:58;;;;;;;5.13;4.75;;;;;;;4.94;73.21;96794.94;4133049;28;20230;-55
2022/04/01 00:24:01;;;;;;;4.88;4.50;;;;;;;4.97;73.18;96784.41;4135643;28;20210;-55
2022/04/01 00:26:03;;;;;;;4.57;4.28;;;;;;;4.98;73.21;96787.94;4133834;28;20752;-54
2022/04/01 00:28:05;;;;;;;4.25;3.92;;;;;;;5.01;72.99;96790.13;4119659;28;20237;-54
2022/04/01 00:30:08;;;;;;;5.05;4.75;;;;;;;4.97;73.18;96791.75;4116535;28;20213;-54
2022/04/01 00:32:10;;;;;;;4.45;4.13;;;;;;;4.98;73.16;96796.09;4135511;28;20230;-54
2022/04/01 00:34:18;;;;;;;5.28;4.78;;;;;;;4.86;72.92;96791.91;4120852;28;20624;-55
2022/04/01 00:36:20;;;;;;;4.40;4.13;;;;;;;4.89;73.41;96785.97;4120380;28;20225;-55
2022/04/01 00:38:21;;;;;;;4.85;4.35;;;;;;;4.83;73.47;96787.81;4132546;28;20271;-55
2022/04/01 00:40:23;;;;;;;5.05;4.35;;;;;;;4.84;73.48;96788.63;4137103;28;20706;-54
2022/04/01 00:42:29;;;;;;;4.55;4.18;;;;;;;4.89;73.66;96786.78;4117818;28;20236;-53
2022/04/01 00:44:33;;;;;;;5.03;4.70;;;;;;;4.91;73.42;96790.06;4120289;28;20202;-54
2022/04/01 00:46:34;;;;;;;4.82;4.53;;;;;;;4.92;73.56;96785.44;4118266;28;20226;-54
2022/04/01 00:48:36;;;;;;;5.63;5.13;;;;;;;4.95;73.70;96787.66;4117018;28;20206;-54
2022/04/01 00:50:38;;;;;;;5.15;4.65;;;;;;;4.88;73.48;96789.75;4118767;28;20244;-55
2022/04/01 00:52:42;;;;;;;4.63;4.22;;;;;;;4.82;73.69;96783.47;4133904;28;20253;-54
2022/04/01 00:54:44;;;;;;;4.82;4.43;;;;;;;4.85;73.08;96782.13;4134350;28;20259;-54
2022/04/01 00:56:47;;;;;;;4.93;4.60;;;;;;;4.96;73.20;96781.97;4133501;28;20253;-54
2022/04/01 00:58:48;;;;;;;5.35;4.95;;;;;;;4.91;72.98;96784.63;4133064;28;20209;-54
2022/04/01 01:00:50;;;;;;;4.97;4.55;;;;;;;4.83;73.45;96782.41;4132190;28;20214;-54
2022/04/01 01:02:54;;;;;;;6.22;5.82;;;;;;;4.79;73.64;96780.47;4117625;28;20676;-55
2022/04/01 01:04:56;;;;;;;4.43;4.15;;;;;;;4.83;73.76;96776.16;4117823;28;20211;-56
2022/04/01 01:07:00;;;;;;;5.15;4.75;;;;;;;4.85;73.30;96780.25;4132808;28;20865;-55
2022/04/01 01:09:03;;;;;;;6.45;5.95;;;;;;;4.85;73.58;96779.41;4128648;28;20213;-55
2022/04/01 01:11:04;;;;;;;6.00;5.47;;;;;;;4.81;73.29;96784.53;4135684;28;20213;-54
2022/04/01 01:13:06;;;;;;;6.35;5.95;;;;;;;4.71;74.13;96784.44;4131574;28;20316;-55
2022/04/01 01:15:13;;;;;;;5.00;4.60;;;;;;;4.80;73.46;96776.69;4134484;28;20210;-54
2022/04/01 01:17:15;;;;;;;5.78;5.25;;;;;;;4.71;73.53;96781.72;4117552;28;20212;-54
2022/04/01 01:19:17;;;;;;;5.32;4.82;;;;;;;4.76;73.68;96776.38;4114673;28;20210;-55
2022/04/01 01:21:19;;;;;;;5.05;4.68;;;;;;;4.69;73.37;96774.94;4132126;28;20205;-55
2022/04/01 01:23:26;;;;;;;4.78;4.45;;;;;;;4.71;73.74;96773.59;4119951;28;20214;-54
2022/04/01 01:25:28;;;;;;;6.00;5.43;;;;;;;4.78;73.62;96774.22;4120181;28;20237;-55
2022/04/01 01:27:30;;;;;;;7.38;6.78;;;;;;;4.81;74.01;96773.69;4117193;28;20246;-56
2022/04/01 01:29:33;;;;;;;4.88;4.18;;;;;;;4.80;73.71;96771.25;4118894;28;20226;-56
2022/04/01 01:31:34;;;;;;;4.85;4.45;;;;;;;4.80;73.93;96777.47;4138593;28;20205;-56
2022/04/01 01:33:36;;;;;;;5.57;5.18;;;;;;;4.80;74.05;96765.84;4135675;28;20209;-56
2022/04/01 01:35:38;;;;;;;5.63;5.20;;;;;;;4.71;73.95;96773.59;4137627;28;20214;-56
2022/04/01 01:37:40;;;;;;;6.65;6.13;;;;;;;4.76;74.03;96765.53;4136615;28;20241;-54
2022/04/01 01:39:41;;;;;;;6.95;6.35;;;;;;;4.73;73.99;96768.75;4134158;28;20280;-55
2022/04/01 01:41:44;;;;;;;6.13;5.63;;;;;;;4.72;73.96;96767.09;4135723;28;20271;-55
2022/04/01 01:43:46;;;;;;;5.68;5.22;;;;;;;4.83;74.00;96760.72;4132609;28;20205;-55
2022/04/01 01:45:48;;;;;;;5.95;5.47;;;;;;;4.80;74.13;96763.94;4131792;28;20217;-56
2022/04/01 01:47:50;;;;;;;6.57;5.97;;;;;;;4.71;73.92;96768.19;4131045;28;20272;-55
2022/04/01 01:54:44;;;;;;;6.80;6.28;;;;;;;4.74;74.21;96772.28;4133340;28;20210;-55
2022/04/01 01:56:46;;;;;;;5.55;5.07;;;;;;;4.75;73.92;96774.75;4134079;28;20248;-55
2022/04/01 01:58:48;;;;;;;5.07;4.68;;;;;;;4.74;74.01;96767.66;4133230;28;20237;-55
2022/04/01 02:00:50;;;;;;;5.60;5.10;;;;;;;4.73;73.86;96771.44;4134782;28;20318;-56
2022/04/01 02:02:52;;;;;;;6.68;5.90;;;;;;;4.69;74.18;96764.94;4119330;28;20341;-56
2022/04/01 02:04:53;;;;;;;5.60;5.20;;;;;;;4.67;73.92;96764.34;4133418;28;20218;-55
2022/04/01 02:06:55;;;;;;;5.47;5.07;;;;;;;4.67;74.54;96772.47;4130674;28;20234;-55
2022/04/01 02:08:58;;;;;;;6.35;5.80;;;;;;;4.66;74.41;96765.41;4133676;28;20583;-55
2022/04/01 02:11:00;;;;;;;5.97;5.38;;;;;;;4.71;74.38;96764.66;4132281;28;20701;-55
2022/04/01 02:13:02;;;;;;;6.90;6.40;;;;;;;4.71;74.43;96768.19;4115547;28;20317;-56
2022/04/01 02:15:04;;;;;;;6.95;6.25;;;;;;;4.69;74.17;96762.22;4117521;28;20704;-55
2022/04/01 02:17:06;;;;;;;6.82;4.95;;;;;;;4.58;74.71;96763.19;4133182;28;20730;-56
2022/04/01 02:19:09;;;;;;;5.03;4.47;;;;;;;4.69;74.50;96762.22;4132140;28;20641;-55
2022/04/01 02:21:11;;;;;;;5.35;4.85;;;;;;;4.70;74.32;96771.97;4118926;28;20218;-54
2022/04/01 02:23:14;;;;;;;6.90;6.22;;;;;;;4.69;74.52;96767.63;4117158;28;20235;-55
2022/04/01 02:25:16;;;;;;;6.20;5.68;;;;;;;4.71;74.28;96767.34;4133504;28;20841;-55
2022/04/01 02:27:18;;;;;;;6.20;5.68;;;;;;;4.66;74.48;96770.84;4117892;28;20315;-55
2022/04/01 02:29:21;;;;;;;6.45;5.85;;;;;;;4.72;74.25;96769.81;4132233;28;20212;-55
2022/04/01 02:31:23;;;;;;;5.65;4.63;;;;;;;4.70;74.63;96766.56;4135363;28;20205;-55
2022/04/01 02:33:25;;;;;;;5.68;5.32;;;;;;;4.67;74.46;96764.34;4134983;28;20228;-55
2022/04/01 02:35:27;;;;;;;6.90;6.15;;;;;;;4.69;74.43;96767.63;4134244;28;20221;-54
2022/04/01 02:37:28;;;;;;;8.70;8.00;;;;;;;4.60;74.75;96768.34;4133383;28;20440;-53
2022/04/01 02:39:30;;;;;;;5.22;4.72;;;;;;;4.69;74.10;96769.50;4104311;28;20230;-54
2022/04/01 02:41:32;;;;;;;7.03;6.43;;;;;;;4.70;74.21;96766.56;4116740;28;20274;-54
2022/04/01 02:43:35;;;;;;;7.45;6.78;;;;;;;4.70;74.12;96766.56;4134106;28;20243;-53
2022/04/01 02:45:37;;;;;;;6.18;5.78;;;;;;;4.66;74.43;96765.41;4133590;28;20212;-54
2022/04/01 02:47:39;;;;;;;6.53;5.90;;;;;;;4.69;74.26;96770.34;4119656;28;20233;-55
2022/04/01 02:49:41;;;;;;;7.07;6.43;;;;;;;4.61;74.14;96773.47;4123926;28;20233;-54
2022/04/01 02:51:45;;;;;;;6.63;5.90;;;;;;;4.58;74.31;96774.00;4137925;28;20348;-54
2022/04/01 02:53:46;;;;;;;7.30;6.68;;;;;;;4.66;74.78;96770.03;4131701;28;20244;-54
2022/04/01 02:55:48;;;;;;;5.75;5.25;;;;;;;4.65;74.64;96774.63;4151772;28;20204;-55
2022/04/01 02:57:50;;;;;;;5.85;5.30;;;;;;;4.69;74.71;96775.75;4137603;28;20199;-53
2022/04/01 02:59:53;;;;;;;6.10;5.60;;;;;;;4.69;74.70;96775.75;4137223;28;20275;-55
2022/04/01 03:01:55;;;;;;;4.93;4.53;;;;;;;4.76;74.07;96780.97;4152528;28;20259;-55
2022/04/01 03:03:58;;;;;;;5.82;5.35;;;;;;;4.69;74.27;96781.19;4152364;28;20254;-55
2022/04/01 03:06:00;;;;;;;6.43;5.78;;;;;;;4.65;74.38;96780.03;4153018;28;20247;-55
2022/04/01 03:08:05;;;;;;;6.00;5.28;;;;;;;4.61;74.42;96778.91;4134633;28;20284;-55
2022/04/01 03:10:06;;;;;;;6.13;5.57;;;;;;;4.63;74.73;96782.19;4137030;28;20205;-55
2022/04/01 03:12:08;;;;;;;5.78;5.25;;;;;;;4.64;74.38;96783.00;4152601;28;20918;-54
2022/04/01 03:14:11;;;;;;;5.35;4.95;;;;;;;4.66;74.41;96787.09;4151485;28;20200;-54
2022/04/01 03:16:13;;;;;;;6.40;5.90;;;;;;;4.69;74.19;96781.19;4135650;28;20210;-54
2022/04/01 03:18:15;;;;;;;7.32;6.63;;;;;;;4.64;74.14;96773.00;4133225;28;20251;-54
2022/04/01 03:20:16;;;;;;;6.03;5.43;;;;;;;4.64;74.18;96773.00;4150290;28;20649;-54
2022/04/01 03:22:20;;;;;;;6.55;6.05;;;;;;;4.67;74.27;96777.88;4134433;28;20253;-54
2022/04/01 03:24:22;;;;;;;6.55;5.90;;;;;;;4.65;74.56;96774.63;4150623;28;20213;-54
2022/04/01 03:26:24;;;;;;;6.18;5.65;;;;;;;4.65;74.57;96774.63;4137915;28;20210;-54
2022/04/01 03:28:26;;;;;;;7.40;6.60;;;;;;;4.64;74.46;96783.81;4151891;28;20217;-55
2022/04/01 03:30:28;;;;;;;7.40;6.68;;;;;;;4.59;74.76;96786.47;4153249;28;20216;-54
2022/04/01 03:32:30;;;;;;;6.13;5.57;;;;;;;4.59;74.74;96783.75;4137877;28;20291;-54
2022/04/01 03:34:32;;;;;;;6.05;5.45;;;;;;;4.60;74.92;96782.69;4135792;28;20214;-55
2022/04/01 03:36:34;;;;;;;7.32;6.75;;;;;;;4.58;74.94;96779.44;4134319;28;20680;-55
2022/04/01 03:38:38;;;;;;;5.10;4.70;;;;;;;4.61;74.76;96787.03;4149668;28;20228;-54
2022/04/01 03:40:40;;;;;;;7.00;6.50;;;;;;;4.60;74.76;96782.69;4150430;28;20212;-54
2022/04/01 03:42:46;;;;;;;9.27;7.97;;;;;;;4.54;74.82;96789.13;4121540;28;20222;-53
2022/04/01 03:44:48;;;;;;;6.25;5.75;;;;;;;4.54;74.68;96789.13;4150472;28;20225;-55
2022/04/01 03:46:59;;;;;;;8.25;7.47;;;;;;;4.69;74.75;96778.47;4150952;28;20205;-54
2022/04/01 03:49:05;;;;;;;6.05;5.55;;;;;;;4.58;74.72;96784.00;4152319;28;20237;-54
2022/04/01 03:51:06;;;;;;;6.28;5.55;;;;;;;4.54;74.86;96783.69;4148593;28;20269;-54
2022/04/01 03:53:08;;;;;;;6.85;6.35;;;;;;;4.59;75.00;96783.75;4149466;28;20233;-56
2022/04/01 03:55:10;;;;;;;6.53;5.97;;;;;;;4.58;74.63;96792.97;4148526;28;21967;-56
2022/04/01 03:57:15;;;;;;;4.70;4.30;;;;;;;4.60;74.67;96793.53;4135354;28;20210;-55
2022/04/01 03:59:17;;;;;;;6.70;6.10;;;;;;;4.57;74.49;96787.78;4149491;28;20214;-56
2022/04/01 04:01:19;;;;;;;7.78;5.15;;;;;;;4.59;74.84;96791.88;4135755;28;20477;-55
2022/04/01 04:03:21;;;;;;;7.35;6.72;;;;;;;4.56;74.79;96791.59;4151389;28;20211;-54
2022/04/01 04:05:24;;;;;;;6.82;6.22;;;;;;;4.61;74.83;96783.53;4149631;28;20251;-56
2022/04/01 04:07:26;;;;;;;5.97;5.43;;;;;;;4.58;74.04;96794.84;4134781;28;20214;-55
2022/04/01 04:09:28;;;;;;;6.85;6.22;;;;;;;4.55;74.58;96796.19;4135522;28;20209;-54
2022/04/01 04:11:32;;;;;;;5.82;5.32;;;;;;;4.55;74.67;96800.78;4149662;28;20206;-54
2022/04/01 04:13:37;;;;;;;6.32;5.90;;;;;;;4.57;74.86;96799.47;4136964;28;20663;-54
2022/04/01 04:15:49;;;;;;;6.72;6.10;;;;;;;4.52;74.41;96799.41;4148119;28;20643;-55
2022/04/01 04:17:54;;;;;;;5.35;4.95;;;;;;;4.53;73.99;96800.22;4118466;28;20191;-55
2022/04/01 04:20:01;;;;;;;7.78;7.18;;;;;;;4.49;74.13;96796.38;4131717;28;20229;-54
2022/04/01 04:22:11;;;;;;;6.25;5.43;;;;;;;4.39;74.25;96798.97;4132785;28;20510;-54
2022/04/01 04:24:23;;;;;;;7.47;6.78;;;;;;;4.27;74.68;96799.09;4132179;28;20197;-54
2022/04/01 04:26:31;;;;;;;6.40;5.88;;;;;;;4.28;74.39;96803.44;4151355;28;20761;-54
2022/04/01 04:28:40;;;;;;;6.95;6.43;;;;;;;4.31;74.43;96804.81;4148569;28;20217;-55
2022/04/01 04:30:53;;;;;;;6.63;6.03;;;;;;;4.32;74.32;96807.28;4150879;28;20212;-54
2022/04/01 04:32:56;;;;;;;6.78;6.18;;;;;;;4.33;74.27;96811.63;4145633;28;20233;-55
2022/04/01 04:35:04;;;;;;;6.43;5.38;;;;;;;4.43;74.15;96809.06;4117312;28;20281;-54
2022/04/01 04:37:09;;;;;;;6.00;5.53;;;;;;;4.40;73.86;96812.25;4149273;28;20282;-55
2022/04/01 04:39:38;;;;;;;6.95;6.35;;;;;;;4.31;73.75;96818.34;4147208;28;20669;-56
2022/04/01 04:41:40;;;;;;;6.43;5.85;;;;;;;4.27;73.50;96820.75;4131966;28;21906;-55
2022/04/01 04:43:44;;;;;;;7.07;6.47;;;;;;;4.28;74.16;96822.38;4148327;28;20216;-54
2022/04/01 04:45:52;;;;;;;6.43;5.93;;;;;;;4.20;74.08;96828.25;4149826;28;20258;-54
2022/04/01 04:47:54;;;;;;;6.65;5.85;;;;;;;4.21;73.91;96821.75;4149557;28;20259;-54
2022/04/01 04:50:00;;;;;;;8.00;7.20;;;;;;;4.18;74.04;96826.84;4134029;28;20351;-54
2022/04/01 04:52:02;;;;;;;6.75;5.97;;;;;;;4.24;73.88;96826.69;4149839;28;20232;-54
2022/04/01 04:54:05;;;;;;;7.10;6.63;;;;;;;4.28;73.64;96827.78;4130698;28;20202;-54
2022/04/01 04:56:07;;;;;;;6.30;5.75;;;;;;;4.16;73.13;96839.81;4133791;28;20217;-53
2022/04/01 04:58:12;;;;;;;7.45;6.57;;;;;;;4.06;72.91;96840.50;4129580;28;20209;-55
2022/04/01 05:00:19;;;;;;;8.40;6.47;;;;;;;4.12;72.47;96844.91;4145347;28;20204;-56
2022/04/01 05:02:42;;;;;;;7.35;6.85;;;;;;;4.10;72.46;96852.47;4146303;28;20238;-55
2022/04/01 05:04:50;;;;;;;6.13;5.63;;;;;;;4.08;72.99;96849.19;4144248;28;20217;-55
2022/04/01 05:07:15;;;;;;;7.90;7.32;;;;;;;4.07;72.47;96847.56;4132272;28;20307;-54
2022/04/01 05:09:26;;;;;;;6.07;5.57;;;;;;;4.07;72.51;96852.97;4151400;28;20238;-54
2022/04/01 05:11:33;;;;;;;7.30;6.70;;;;;;;3.90;72.43;96857.59;4133657;28;20260;-54
2022/04/01 05:13:45;;;;;;;4.72;4.32;;;;;;;3.95;72.82;96859.56;4149494;28;20288;-54
2022/04/01 05:15:53;;;;;;;6.88;6.28;;;;;;;3.94;72.75;96869.56;4135337;28;20216;-55
2022/04/01 05:17:54;;;;;;;6.13;5.63;;;;;;;3.90;72.88;96863.03;4136491;28;20205;-55
2022/04/01 05:19:58;;;;;;;6.72;6.13;;;;;;;4.06;72.72;96872.97;4151156;28;20213;-54
2022/04/01 05:22:08;;;;;;;6.22;5.72;;;;;;;4.01;72.06;96872.09;4151590;28;20232;-54
2022/04/01 05:24:14;;;;;;;5.70;5.25;;;;;;;3.99;72.60;96883.16;4135246;28;20840;-55
2022/04/01 05:26:20;;;;;;;6.53;6.03;;;;;;;3.97;72.05;96877.19;4148183;28;20679;-55
2022/04/01 05:28:24;;;;;;;6.20;5.70;;;;;;;4.03;71.93;96884.31;4151742;28;20633;-56
2022/04/01 05:30:29;;;;;;;6.38;5.80;;;;;;;4.03;72.03;96880.78;4132420;28;20556;-51
2022/04/01 05:32:34;;;;;;;6.28;5.68;;;;;;;3.70;71.82;96883.53;4145895;28;20227;-55
2022/04/01 05:34:46;;;;;;;6.20;5.75;;;;;;;3.73;72.24;96883.84;4146983;28;20205;-54
2022/04/01 05:36:51;;;;;;;7.82;7.20;;;;;;;3.79;72.38;96882.84;4150287;28;20219;-54
2022/04/01 05:38:54;;;;;;;6.30;5.75;;;;;;;3.80;71.95;96889.91;4154020;28;20200;-54
2022/04/01 05:40:59;;;;;;;6.53;6.03;;;;;;;3.75;72.08;96892.53;4151619;28;20270;-54
2022/04/01 05:43:02;;;;;;;6.32;5.80;;;;;;;3.82;72.29;96895.06;4135275;28;20238;-53
2022/04/01 05:45:04;;;;;;;7.65;7.00;;;;;;;3.85;72.45;96894.56;4134703;28;20205;-56
2022/04/01 05:47:07;;;;;;;6.38;5.78;;;;;;;3.82;71.73;96886.97;4124354;28;20245;-56
2022/04/01 05:49:09;;;;;;;6.90;6.40;;;;;;;3.86;71.85;96897.03;4133819;28;20221;-57
2022/04/01 05:51:15;;;;;;;6.25;5.75;;;;;;;3.88;71.55;96903.00;4135177;28;20209;-54
2022/04/01 05:53:19;;;;;;;6.93;6.40;;;;;;;3.89;71.99;96904.66;4151918;28;20225;-57
2022/04/01 05:55:24;;;;;;;4.50;4.18;;;;;;;3.93;72.17;96903.09;4136053;28;21142;-58
2022/04/01 05:57:26;;;;;;;4.75;4.35;;;;;;;3.95;71.21;96898.22;4150993;28;20209;-57
2022/04/01 05:59:27;;;;;;;7.05;6.45;;;;;;;3.90;71.31;96909.00;4152846;28;20204;-56
2022/04/01 06:01:43;;;;;;;7.03;6.43;;;;;;;3.93;71.71;96905.00;4150153;28;20255;-59
2022/04/01 06:04:07;;;;;;;6.45;5.95;;;;;;;3.93;71.44;96908.50;4145144;28;20234;-55
2022/04/01 06:06:28;;;;;;;4.50;4.15;;;;;;;3.83;71.64;96915.63;4147691;28;20582;-54
2022/04/01 06:08:45;;;;;;;6.57;5.63;;;;;;;3.82;71.86;96909.44;4149788;28;20849;-55
2022/04/01 06:11:01;;;;;;;5.28;4.88;;;;;;;3.88;71.59;96924.63;4156066;28;20252;-56
2022/04/01 06:13:10;;;;;;;6.05;5.55;;;;;;;3.84;71.36;96928.09;4134703;28;20291;-55
2022/04/01 06:15:44;;;;;;;8.48;5.65;;;;;;;3.83;71.62;96921.88;4150841;28;20353;-56
2022/04/01 06:18:08;;;;;;;4.85;4.35;;;;;;;3.89;71.18;96926.31;4138893;28;20675;-55
2022/04/01 06:20:13;;;;;;;6.93;6.30;;;;;;;3.86;71.22;96926.78;4152472;28;20236;-56
2022/04/01 06:22:20;;;;;;;6.35;5.93;;;;;;;3.88;71.56;96930.06;4152157;28;20225;-57
2022/04/01 06:24:33;;;;;;;5.45;5.05;;;;;;;3.86;71.10;96932.19;4138166;28;20214;-56
2022/04/01 06:26:41;;;;;;;7.10;6.50;;;;;;;3.94;70.63;96934.47;4150921;28;20562;-54
2022/04/01 06:28:50;;;;;;;5.60;5.20;;;;;;;4.00;70.75;96938.09;4125686;28;20221;-57
2022/04/01 06:31:06;;;;;;;7.60;7.00;;;;;;;3.98;70.50;96940.22;4154426;28;20295;-54
2022/04/01 06:33:08;;;;;;;5.68;5.22;;;;;;;3.96;70.29;96936.94;4152889;28;20247;-55
2022/04/01 06:35:10;;;;;;;5.10;4.75;;;;;;;3.88;70.59;96949.00;4138608;28;20206;-54
2022/04/01 06:37:20;;;;;;;4.45;4.05;;;;;;;3.80;70.22;96949.41;4153380;28;20247;-55
2022/04/01 06:39:41;;;;;;;6.28;5.85;;;;;;;3.76;70.58;96958.25;4136268;28;20225;-59
2022/04/01 06:41:47;;;;;;;4.95;4.55;;;;;;;3.78;70.70;96956.94;4152970;28;20267;-57
2022/04/01 06:43:49;;;;;;;5.45;5.05;;;;;;;3.77;70.47;96966.13;4149558;28;20197;-54
2022/04/01 06:45:51;;;;;;;5.82;5.32;;;;;;;3.76;70.50;96953.69;4153903;28;20232;-55
2022/04/01 06:47:53;;;;;;;4.43;4.07;;;;;;;3.78;70.24;96962.38;4135549;28;20321;-54
2022/04/01 06:49:55;;;;;;;4.63;3.67;;;;;;;3.71;70.65;96964.41;4138069;28;21097;-54
2022/04/01 06:51:58;;;;;;;4.82;4.43;;;;;;;3.70;70.57;96962.78;4139332;28;20226;-57
2022/04/01 06:54:00;;;;;;;4.25;3.90;;;;;;;3.66;70.62;96961.63;4138597;28;20682;-54
2022/04/01 06:56:05;;;;;;;5.75;5.25;;;;;;;3.67;70.72;96960.53;4151533;28;20952;-54
2022/04/01 06:58:11;;;;;;;5.60;5.18;;;;;;;3.65;70.80;96969.97;4154905;28;20220;-56
2022/04/01 07:00:14;;;;;;;4.03;3.83;;;;;;;3.69;70.47;96958.44;4152392;28;20272;-55
2022/04/01 07:02:17;;;;;;;4.70;4.30;;;;;;;3.72;70.28;96963.34;4137575;28;20226;-53
2022/04/01 07:04:20;;;;;;;4.13;3.83;;;;;;;3.73;69.92;96975.00;4134924;28;20260;-57
2022/04/01 07:06:22;;;;;;;4.43;4.13;;;;;;;3.64;70.27;96974.56;4154941;28;20223;-55
2022/04/01 07:08:24;;;;;;;5.32;4.97;;;;;;;3.74;70.74;96985.53;4152338;28;20204;-56
2022/04/01 07:10:26;;;;;;;4.90;4.50;;;;;;;3.82;70.25;96981.63;4152796;28;20289;-55
2022/04/01 07:12:28;;;;;;;5.03;4.68;;;;;;;3.73;70.20;96973.09;4151436;28;20232;-56
2022/04/01 07:14:33;;;;;;;4.15;3.85;;;;;;;3.78;70.50;96967.78;4151820;28;20205;-56
2022/04/01 07:16:35;;;;;;;4.45;4.15;;;;;;;3.75;70.62;96973.66;4137630;28;20205;-52
2022/04/01 07:18:43;;;;;;;4.72;4.40;;;;;;;3.61;69.93;96976.94;4130493;28;20205;-55
2022/04/01 07:20:48;;;;;;;4.93;4.60;;;;;;;3.69;70.31;96963.84;4147694;28;20213;-53
2022/04/01 07:22:53;;;;;;;4.80;4.40;;;;;;;3.66;69.98;96975.13;4149539;28;20255;-55
2022/04/01 07:24:55;;;;;;;4.65;4.25;;;;;;;3.72;70.30;96973.31;4137278;28;20732;-54
2022/04/01 07:26:57;;;;;;;3.30;3.10;;;;;;;3.72;69.60;96984.97;4137528;28;20263;-56
2022/04/01 07:28:59;;;;;;;4.20;3.92;;;;;;;3.74;70.19;96982.84;4140299;28;20229;-53
2022/04/01 07:33:40;;;;;;;3.47;3.22;;;;;;;3.72;69.52;96979.56;4137118;28;20232;-53
2022/04/01 07:35:48;;;;;;;3.30;3.03;;;;;;;3.70;70.07;96979.00;4138267;28;20582;-55
2022/04/01 07:37:53;;;;;;;2.40;2.30;;;;;;;3.77;70.29;96986.94;4137055;28;20235;-55
2022/04/01 07:39:57;;;;;;;3.83;3.58;;;;;;;3.73;70.29;96991.22;4149773;28;20201;-55
2022/04/01 07:41:59;;;;;;;2.92;2.75;;;;;;;3.77;69.73;96992.34;4150103;28;20299;-53
2022/04/01 07:44:02;;;;;;;3.40;3.20;;;;;;;3.87;69.17;96982.53;4150229;28;20206;-53
2022/04/01 07:46:04;;;;;;;4.20;3.95;;;;;;;3.85;69.27;96995.47;4139835;28;20264;-56
2022/04/01 07:48:07;;;;;;;4.05;3.80;;;;;;;3.88;68.83;96984.16;4136182;28;20206;-56
2022/04/01 07:50:09;;;;;;;3.30;3.05;;;;;;;3.72;69.29;97003.91;4134691;28;20607;-56
2022/04/01 07:52:13;;;;;;;4.57;4.18;;;;;;;3.75;69.46;96998.00;4131723;28;20225;-54
2022/04/01 07:54:20;;;;;;;3.90;3.63;;;;;;;3.66;69.56;96999.47;4148631;28;20204;-53
2022/04/01 07:56:30;;;;;;;3.70;3.45;;;;;;;3.40;69.85;97008.19;4123335;28;20215;-54
2022/04/01 07:58:32;;;;;;;3.30;2.83;;;;;;;3.56;69.53;97007.41;4137934;28;20704;-55
2022/04/01 08:00:34;;;;;;;4.20;3.75;;;;;;;3.57;69.99;97009.06;4137605;28;20209;-52
2022/04/01 08:02:36;;;;;;;3.55;3.25;;;;;;;3.66;69.90;97001.38;4154379;28;20236;-56
2022/04/01 08:04:39;;;;;;;2.45;2.35;;;;;;;3.74;69.56;97004.47;4152659;28;20208;-54
2022/04/01 08:06:47;;;;;;;5.07;4.68;;;;;;;3.84;69.85;97010.06;4156500;28;20702;-56
2022/04/01 08:08:49;;;;;;;4.13;3.88;;;;;;;3.95;69.38;97008.34;4134049;28;20233;-54
2022/04/01 08:10:54;;;;;;;3.25;3.05;;;;;;;4.10;69.08;97006.72;4152258;28;20211;-54
2022/04/01 08:12:56;;;;;;;3.20;3.05;;;;;;;4.22;69.26;97006.63;4120738;28;20226;-56
2022/04/01 08:14:58;;;;;;;3.75;3.05;;;;;;;4.16;68.67;97000.31;4153619;28;20283;-55
2022/04/01 08:17:00;;;;;;;3.40;2.95;;;;;;;4.32;68.43;97010.31;4120674;28;20719;-54
2022/04/01 08:19:03;;;;;;;3.03;2.83;;;;;;;4.38;67.86;97005.78;4135613;28;20296;-54
2022/04/01 08:21:05;;;;;;;3.92;3.33;;;;;;;4.35;68.09;97012.50;4136781;28;20648;-55
2022/04/01 08:23:09;;;;;;;3.70;3.50;;;;;;;4.43;67.94;97014.00;4148035;28;20229;-55
2022/04/01 08:25:11;;;;;;;4.32;4.03;;;;;;;4.43;67.39;97020.25;4132245;28;20214;-54
2022/04/01 08:27:16;;;;;;;3.47;3.28;;;;;;;4.50;67.29;97020.88;4133085;28;20264;-54
2022/04/01 08:29:18;;;;;;;3.97;3.72;;;;;;;4.40;67.56;97020.72;4138322;28;20598;-56
2022/04/01 08:31:23;;;;;;;3.90;3.70;;;;;;;4.48;67.43;97014.06;4151260;28;20292;-54
2022/04/01 08:33:26;;;;;;;3.22;3.03;;;;;;;4.54;67.16;97022.00;4138175;28;20201;-55
2022/04/01 08:35:28;;;;;;;3.45;3.25;;;;;;;4.57;67.27;97026.94;4153037;28;20278;-55
2022/04/01 08:37:30;;;;;;;3.78;3.47;;;;;;;4.66;66.11;97028.16;4136675;28;20222;-55
2022/04/01 08:39:33;;;;;;;3.53;3.33;;;;;;;4.64;66.53;97027.59;4150968;28;20224;-54
2022/04/01 08:41:35;;;;;;;3.33;3.13;;;;;;;4.74;66.47;97025.00;4151163;28;20203;-54
2022/04/01 08:43:39;;;;;;;6.25;4.05;;;;;;;4.79;66.55;97030.50;4140052;28;20776;-54
2022/04/01 08:45:41;;;;;;;3.55;3.25;;;;;;;4.87;65.99;97030.06;4125793;28;20214;-54
2022/04/01 08:47:43;;;;;;;3.42;3.13;;;;;;;4.83;65.69;97034.38;4136335;28;20899;-55
2022/04/01 08:49:46;;;;;;;3.22;3.03;;;;;;;5.05;65.72;97040.63;4135859;28;20225;-54
2022/04/01 08:51:47;;;;;;;3.75;3.55;;;;;;;4.89;65.67;97044.22;4136735;28;20229;-53
2022/04/01 08:53:53;;;;;;;2.70;2.50;;;;;;;4.86;65.67;97041.97;4138687;28;20222;-54
2022/04/01 08:55:57;;;;;;;3.78;3.58;;;;;;;4.88;65.08;97044.44;4155498;28;20210;-56
2022/04/01 08:57:58;;;;;;;3.17;2.97;;;;;;;4.96;65.42;97052.97;4152437;28;20628;-57
2022/04/01 09:00:00;;;;;;;3.85;3.47;;;;;;;4.89;65.21;97046.09;4151185;28;20208;-53
2022/04/01 09:02:10;;;;;;;3.72;3.42;;;;;;;5.13;65.66;97053.72;4136603;28;20225;-54
2022/04/01 09:04:21;;;;;;;3.08;2.88;;;;;;;5.06;64.77;97057.72;4153331;28;20209;-55
2022/04/01 09:06:23;;;;;;;2.38;2.17;;;;;;;5.13;65.04;97056.44;4137753;28;20275;-54
2022/04/01 09:08:33;;;;;;;3.40;3.15;;;;;;;5.05;64.66;97065.00;4136865;28;20317;-54
2022/04/01 09:10:58;;;;;;;3.85;3.55;;;;;;;4.83;64.96;97058.75;4134755;28;20283;-55
2022/04/01 09:13:00;;;;;;;3.45;3.22;;;;;;;4.93;65.34;97063.50;4132131;28;20742;-53
2022/04/01 09:15:03;;;;;;;3.38;3.08;;;;;;;4.87;65.08;97068.00;4132254;28;20289;-57
2022/04/01 09:17:05;;;;;;;3.00;2.80;;;;;;;4.99;64.52;97068.72;4146625;28;20644;-56
2022/04/01 09:19:09;;;;;;;3.85;3.55;;;;;;;4.95;64.41;97072.19;4133152;28;20214;-54
2022/04/01 09:21:12;;;;;;;2.90;2.70;;;;;;;4.97;64.60;97079.00;4148142;28;20263;-53
2022/04/01 09:23:24;;;;;;;4.10;3.72;;;;;;;5.04;64.53;97085.06;4132834;28;20609;-56
2022/04/01 09:25:25;;;;;;;2.55;2.40;;;;;;;4.96;63.87;97080.06;4151317;28;20197;-55
2022/04/01 09:27:51;;;;;;;3.20;2.92;;;;;;;4.99;64.51;97079.56;4153567;28;20324;-54
2022/04/01 09:29:58;;;;;;;3.00;2.80;;;;;;;4.82;64.01;97081.50;4118979;28;20222;-54
2022/04/01 09:32:07;;;;;;;2.45;2.35;;;;;;;4.82;63.87;97077.94;4153467;28;20730;-54
2022/04/01 09:34:13;;;;;;;3.38;3.05;;;;;;;4.68;64.90;97082.88;4137757;28;20217;-55
2022/04/01 09:36:17;;;;;;;2.60;2.40;;;;;;;4.65;64.77;97083.41;4152296;28;20263;-53
2022/04/01 09:38:18;;;;;;;2.55;2.35;;;;;;;4.64;64.26;97089.06;4150211;28;20205;-53
2022/04/01 09:40:22;;;;;;;2.65;2.45;;;;;;;4.68;64.27;97088.31;4151650;28;20205;-55
2022/04/01 09:42:24;;;;;;;3.60;3.40;;;;;;;4.42;64.48;97099.84;4132999;28;20228;-55
2022/04/01 09:44:30;;;;;;;3.20;2.90;;;;;;;4.39;64.12;97111.13;4135539;28;20683;-54
2022/04/01 09:46:33;;;;;;;2.85;2.75;;;;;;;4.37;64.25;97105.16;4137261;28;20249;-53
2022/04/01 09:48:40;;;;;;;3.67;3.47;;;;;;;4.46;64.94;97106.38;4137817;28;20302;-54
2022/04/01 09:50:44;;;;;;;3.45;3.25;;;;;;;4.48;64.83;97098.81;4125499;28;20234;-54
2022/04/01 09:52:49;;;;;;;2.97;2.70;;;;;;;4.50;65.16;97115.66;4154235;28;20232;-54
2022/04/01 09:54:55;;;;;;;3.30;2.90;;;;;;;4.47;64.14;97108.00;4153773;28;20201;-54
2022/04/01 09:56:58;;;;;;;4.57;3.45;;;;;;;4.58;64.40;97109.84;4154474;28;20263;-56
2022/04/01 09:59:02;;;;;;;3.38;3.17;;;;;;;4.51;64.55;97120.00;4136804;28;20217;-55
2022/04/01 10:01:05;;;;;;;2.50;2.40;;;;;;;4.40;64.01;97118.19;4150323;28;20217;-54